Time;durP1;ratioP1;P1;durP2;ratioP2;P2;SDS_P1;SDS_P2;PMS_P1;PMS_P2;Temp;Humidity;BMP_temperature;BMP_pressure;BME280_temperature;BME280_humidity;BME280_pressure;Samples;Min_cycle;Max_cycle;Signal;HPM_P1;HPM_P2
2023/01/06 17:28:53;;;;;;;3.90;2.30;;;9.60;99.90;;;;;;5092391;27;21067;-65
2023/01/06 17:31:30;;;;;;;3.83;3.53;;;9.60;99.90;;;;;;5091561;28;21009;-66
2023/01/06 17:33:58;;;;;;;4.50;4.10;;;9.90;99.90;;;;;;5092101;28;20461;-66
2023/01/06 17:36:31;;;;;;;2.53;1.97;;;10.30;99.90;;;;;;5091973;28;20527;-65
2023/01/06 17:38:58;;;;;;;8.83;7.83;;;10.60;99.90;;;;;;5091660;28;20434;-65
2023/01/06 17:41:25;;;;;;;4.20;3.43;;;10.90;99.90;;;;;;5091304;28;21000;-65
2023/01/06 17:43:53;;;;;;;2.00;1.90;;;11.10;99.90;;;;;;5091603;28;20471;-65
2023/01/06 17:46:28;;;;;;;2.10;2.00;;;11.30;99.90;;;;;;5091674;28;20453;-65
2023/01/06 17:49:02;;;;;;;2.33;2.23;;;11.50;99.90;;;;;;5091912;28;20451;-65
2023/01/06 17:51:29;;;;;;;2.17;2.07;;;11.60;99.90;;;;;;5090923;28;20997;-66
2023/01/06 17:56:40;;;;;;;1.57;1.47;;;11.90;99.90;;;;;;5091396;28;20405;-66
2023/01/06 17:59:17;;;;;;;2.30;1.80;;;11.90;99.90;;;;;;5091323;28;20453;-63
2023/01/06 18:01:43;;;;;;;2.00;1.90;;;11.90;99.90;;;;;;5091117;28;20464;-64
2023/01/06 18:04:14;;;;;;;1.97;1.87;;;12.00;99.90;;;;;;5091096;28;20449;-64
2023/01/06 18:06:43;;;;;;;2.07;1.97;;;12.00;99.90;;;;;;5090807;28;20495;-64
2023/01/06 18:09:13;;;;;;;2.53;2.43;;;12.00;99.90;;;;;;5090850;28;20453;-64
2023/01/06 18:11:42;;;;;;;3.50;2.20;;;12.00;99.90;;;;;;5090740;28;20474;-64
2023/01/06 18:14:24;;;;;;;2.30;2.20;;;12.00;99.90;;;;;;5091058;28;20828;-67
2023/01/06 18:16:55;;;;;;;2.30;2.10;;;12.00;99.90;;;;;;5091711;28;20437;-66
2023/01/06 18:19:32;;;;;;;2.33;2.23;;;12.00;99.90;;;;;;5093148;28;20438;-66
2023/01/06 18:22:01;;;;;;;4.70;4.30;;;12.00;99.90;;;;;;5093331;28;20483;-64
2023/01/06 18:24:34;;;;;;;3.00;2.70;;;12.00;99.90;;;;;;5091555;28;20449;-63
2023/01/06 18:27:03;;;;;;;2.93;2.83;;;12.00;99.90;;;;;;5089990;28;20477;-64
2023/01/06 18:29:34;;;;;;;2.60;2.50;;;12.10;99.90;;;;;;5090234;28;20503;-64
2023/01/06 18:32:23;;;;;;;2.67;2.57;;;12.00;99.90;;;;;;5090057;28;20473;-64
2023/01/06 18:34:51;;;;;;;2.70;2.60;;;12.10;99.90;;;;;;5090635;28;20845;-63
2023/01/06 18:37:22;;;;;;;3.37;3.07;;;12.10;99.90;;;;;;5090273;28;20503;-63
2023/01/06 18:39:50;;;;;;;3.03;2.93;;;12.10;99.90;;;;;;5078941;28;20929;-64
2023/01/06 18:42:24;;;;;;;2.77;2.57;;;12.10;99.90;;;;;;5076510;28;20458;-63
2023/01/06 18:44:59;;;;;;;2.80;2.70;;;12.20;99.90;;;;;;5077444;28;20434;-64
2023/01/06 18:47:30;;;;;;;2.90;2.70;;;12.20;99.90;;;;;;5076607;28;20515;-65
2023/01/06 18:50:05;;;;;;;3.13;2.80;;;12.30;99.90;;;;;;5076606;28;20439;-65
2023/01/06 18:52:40;;;;;;;2.90;2.70;;;12.30;99.90;;;;;;5076727;28;20476;-65
2023/01/06 18:55:24;;;;;;;2.30;2.20;;;12.30;99.90;;;;;;5076951;28;20458;-64
2023/01/06 18:57:56;;;;;;;3.00;2.80;;;12.30;99.90;;;;;;5076485;28;20793;-64
2023/01/06 19:00:36;;;;;;;3.10;2.90;;;12.30;99.90;;;;;;5076571;28;20492;-64
2023/01/06 19:03:18;;;;;;;3.87;3.50;;;12.30;99.90;;;;;;5076503;28;20480;-64
2023/01/06 19:05:46;;;;;;;3.53;3.23;;;12.30;99.90;;;;;;5076228;28;20438;-64
2023/01/06 19:08:16;;;;;;;3.03;2.83;;;12.30;99.90;;;;;;5076623;28;20502;-64
2023/01/06 19:10:45;;;;;;;3.33;3.13;;;12.30;99.90;;;;;;5076312;28;20473;-64
2023/01/06 19:13:17;;;;;;;3.63;3.37;;;12.30;99.90;;;;;;5076178;28;20554;-64
2023/01/06 19:15:46;;;;;;;2.87;2.70;;;12.20;99.90;;;;;;5075890;28;20906;-64
2023/01/06 19:18:15;;;;;;;3.40;3.10;;;12.20;99.90;;;;;;5076078;28;20485;-64
2023/01/06 19:20:43;;;;;;;4.50;4.10;;;12.20;99.90;;;;;;5076097;28;20515;-64
2023/01/06 19:23:17;;;;;;;3.50;3.30;;;12.20;99.90;;;;;;5075813;28;20556;-64
2023/01/06 19:25:47;;;;;;;3.70;3.40;;;12.20;99.90;;;;;;5076487;28;20836;-65
2023/01/06 19:28:17;;;;;;;4.80;3.30;;;12.20;99.90;;;;;;5075630;28;20480;-65
2023/01/06 19:30:49;;;;;;;4.10;3.80;;;12.20;99.90;;;;;;5076122;28;20458;-64
2023/01/06 19:33:22;;;;;;;6.93;4.53;;;12.20;99.90;;;;;;5077199;28;20474;-64
2023/01/06 19:35:50;;;;;;;4.57;4.17;;;12.20;99.90;;;;;;5075701;28;20450;-65
2023/01/06 19:38:25;;;;;;;5.30;4.00;;;12.10;99.90;;;;;;5075802;28;20457;-64
2023/01/06 19:40:52;;;;;;;5.10;4.60;;;12.10;99.90;;;;;;5075725;28;20438;-65
2023/01/06 19:43:24;;;;;;;7.87;5.37;;;12.10;99.90;;;;;;5075347;28;20470;-64
2023/01/06 19:45:52;;;;;;;9.40;5.80;;;12.00;99.90;;;;;;5075647;28;20450;-64
2023/01/06 19:48:22;;;;;;;5.17;4.77;;;11.90;99.90;;;;;;5075486;28;20478;-64
2023/01/06 19:50:50;;;;;;;5.23;4.83;;;11.90;99.90;;;;;;5074720;28;20442;-64
2023/01/06 19:53:38;;;;;;;6.20;5.70;;;11.90;99.90;;;;;;5075120;28;21050;-64
2023/01/06 19:56:20;;;;;;;5.93;5.53;;;11.90;99.90;;;;;;5075556;28;20438;-64
2023/01/06 19:58:52;;;;;;;6.47;5.90;;;12.00;99.90;;;;;;5075345;28;20434;-65
2023/01/06 20:01:21;;;;;;;6.07;5.43;;;12.00;99.90;;;;;;5075234;28;20445;-64
2023/01/06 20:03:49;;;;;;;6.60;6.03;;;12.00;99.90;;;;;;5075208;28;20454;-64
2023/01/06 20:06:16;;;;;;;7.30;6.60;;;12.00;99.90;;;;;;5076147;28;20450;-69
2023/01/06 20:08:43;;;;;;;6.07;5.60;;;12.00;99.90;;;;;;5075048;28;20474;-64
2023/01/06 20:11:11;;;;;;;6.00;5.50;;;11.90;99.90;;;;;;5075480;28;20458;-64
2023/01/06 20:13:38;;;;;;;5.30;4.90;;;11.90;99.90;;;;;;5075730;28;20462;-63
2023/01/06 20:16:06;;;;;;;5.27;4.87;;;11.90;99.90;;;;;;5075384;28;20454;-69
2023/01/06 20:18:34;;;;;;;5.00;4.60;;;12.00;99.90;;;;;;5075437;28;20442;-62
2023/01/06 20:21:01;;;;;;;6.80;5.40;;;12.00;99.90;;;;;;5075127;28;20450;-63
2023/01/06 20:23:27;;;;;;;5.83;5.33;;;11.90;99.90;;;;;;5075099;28;20527;-63
2023/01/06 20:25:54;;;;;;;4.80;4.40;;;11.90;99.90;;;;;;5075091;28;20507;-62
2023/01/06 20:28:20;;;;;;;9.33;5.43;;;11.90;99.90;;;;;;5074591;28;20481;-63
2023/01/06 20:30:47;;;;;;;6.70;6.10;;;11.90;99.90;;;;;;5074514;28;20481;-63
2023/01/06 20:33:14;;;;;;;5.87;5.37;;;12.00;99.90;;;;;;5074610;28;20478;-63
2023/01/06 20:35:42;;;;;;;5.77;5.27;;;12.00;99.90;;;;;;5074596;28;20524;-64
2023/01/06 20:38:10;;;;;;;5.77;5.20;;;12.10;99.90;;;;;;5074744;28;20454;-63
2023/01/06 20:40:36;;;;;;;6.00;5.50;;;12.10;99.90;;;;;;5074806;28;20553;-64
2023/01/06 20:43:03;;;;;;;5.67;5.17;;;12.10;99.90;;;;;;5074316;28;20981;-63
2023/01/06 20:45:30;;;;;;;8.33;4.97;;;12.00;99.90;;;;;;5074544;28;20537;-63
2023/01/06 20:47:57;;;;;;;6.37;5.87;;;12.00;99.90;;;;;;5074642;28;20482;-63
2023/01/06 20:50:26;;;;;;;6.80;6.10;;;11.90;99.90;;;;;;5074322;28;20925;-62
2023/01/06 20:52:54;;;;;;;11.43;6.83;;;11.90;99.90;;;;;;5074509;28;20565;-62
2023/01/06 20:55:21;;;;;;;8.27;7.50;;;11.80;99.90;;;;;;5074487;28;20450;-62
2023/01/06 20:57:48;;;;;;;8.47;7.67;;;11.70;99.90;;;;;;5074921;28;20441;-62
2023/01/06 21:00:15;;;;;;;8.20;7.50;;;11.60;99.90;;;;;;5074895;28;20484;-62
2023/01/06 21:02:42;;;;;;;8.93;8.07;;;11.60;99.90;;;;;;5074352;28;20496;-62
2023/01/06 21:05:09;;;;;;;8.53;7.73;;;11.60;99.90;;;;;;5074956;28;20496;-62
2023/01/06 21:07:36;;;;;;;8.10;7.30;;;11.60;99.90;;;;;;5074630;28;20450;-62
2023/01/06 21:10:05;;;;;;;7.93;7.13;;;11.60;99.90;;;;;;5075432;28;20792;-62
2023/01/06 21:12:32;;;;;;;9.77;8.87;;;11.60;99.90;;;;;;5075170;28;20523;-63
2023/01/06 21:14:58;;;;;;;8.60;7.80;;;11.70;99.90;;;;;;5074789;28;20497;-62
2023/01/06 21:17:25;;;;;;;9.33;8.30;;;11.60;99.90;;;;;;5074056;28;20438;-63
2023/01/06 21:19:52;;;;;;;9.80;8.90;;;11.60;99.90;;;;;;5075069;28;20454;-62
2023/01/06 21:22:18;;;;;;;8.80;8.10;;;11.60;99.90;;;;;;5074509;28;20874;-62
2023/01/06 21:24:45;;;;;;;9.93;8.50;;;11.60;99.90;;;;;;5075238;28;20449;-64
2023/01/06 21:27:13;;;;;;;10.40;8.63;;;11.60;99.90;;;;;;5074895;28;20515;-65
2023/01/06 21:29:39;;;;;;;10.23;9.07;;;11.60;99.90;;;;;;5075033;28;20892;-64
2023/01/06 21:32:06;;;;;;;9.20;8.40;;;11.60;99.90;;;;;;5073764;28;20861;-65
2023/01/06 21:34:33;;;;;;;8.20;7.50;;;11.60;99.90;;;;;;5074309;28;20854;-64
2023/01/06 21:36:59;;;;;;;8.70;7.80;;;11.60;99.90;;;;;;5073999;28;20453;-65
2023/01/06 21:39:26;;;;;;;10.57;9.57;;;11.70;99.90;;;;;;5073729;28;20476;-62
2023/01/06 21:44:38;;;;;;;10.43;8.80;;;11.70;99.90;;;;;;5073883;28;20413;-62
2023/01/06 21:47:05;;;;;;;9.53;8.63;;;11.70;99.90;;;;;;5073345;28;20459;-62
2023/01/06 21:49:31;;;;;;;8.77;7.97;;;11.70;99.90;;;;;;5073572;28;20478;-62
2023/01/06 21:52:01;;;;;;;9.17;8.27;;;11.70;99.90;;;;;;5073117;28;20885;-62
2023/01/06 21:54:28;;;;;;;8.20;7.50;;;11.70;99.90;;;;;;5073961;28;20443;-62
2023/01/06 21:56:55;;;;;;;9.00;8.20;;;11.80;99.90;;;;;;5073471;28;20507;-62
2023/01/06 21:59:22;;;;;;;9.50;7.90;;;11.80;99.90;;;;;;5073400;28;20450;-62
